Terminal Aerodrome Forecast
Issued by NWS Birmingham, AL

Home | Current Version | Previous Version | Text Only | Print | Product List | Glossary On
Versions: 1 2 3 4 5 6 7 8 9 10 11 12
000
FTUS44 KBMX 170539
TAFBHM
TAF
KBHM 170539Z 1706/1806 12002KT P6SM SCT100 BKN250
     FM171500 07006KT 6SM -RA BR OVC025
     FM171700 05007KT 4SM -RA BR OVC015
     FM172100 07007KT 4SM -RA BR OVC007
     FM180100 05003KT 5SM BR OVC007=

USA.gov is the U.S. government's official web portal to all federal, state and local government web resources and services.